Bishopbriggs, United Kingdom
Current Conditions -  °F | °C
As of 12:20 AM on Thursday 29 Jan 2015 (Local Time) from EGPF Reporting Station
Light Snow Light Snow  
Wind Chill: 24°   Ceiling: 1200
Heat Index: 32°   Visibility: 3mi
Dew Point: 32°   Wind: 9mph
Humidity: 100%   Direction: 250°WSW
Pressure: 29.06"   Gusts: NA
Location:  55.91°N, 4.22°W
Report Text: EGPF 290020Z 25008KT 5000 -SN SCT003TCU BKN012 BKN020 00/00 Q0984 RESN
Loading
Personal Weather Stations






























Interactive Weather Map New forecast layout! Learn more

10-Day Weather Forecast

Advertisements
Track Severe Weather on mobile